Terminal Aerodrome Forecast
Issued by NWS Wilmington, OH

Home | Current Version | Previous Version | Text Only | Print | Product List | Glossary On
Versions: 1 2 3 4 5 6 7 8 9 10 11 12 13 14 15 16 17 18 19 20 21 22 23 24 25 26 27 28
000
FTUS41 KILN 170200 AAA
TAFCVG
TAF AMD
KCVG 170248Z 1703/1806 01004KT P6SM OVC030
     FM170600 00000KT 4SM BR FEW030
     FM170800 00000KT 2SM BR FEW030
      TEMPO 1710/1712 1/2SM FG
     FM171300 00000KT 4SM BR FEW030
     FM171400 VRB03KT P6SM SCT030
     FM171600 26004KT P6SM BKN035
     FM172300 34004KT P6SM BKN120=

USA.gov is the U.S. government's official web portal to all federal, state and local government web resources and services.